Time;durP1;ratioP1;P1;durP2;ratioP2;P2;SDS_P1;SDS_P2;PMS_P1;PMS_P2;Temp;Humidity;BMP_temperature;BMP_pressure;BME280_temperature;BME280_humidity;BME280_pressure;Samples;Min_cycle;Max_cycle;Signal;HPM_P1;HPM_P2
2023/05/05 00:00:14;;;;;;;65.57;62.03;;;;;;;25.27;40.84;101355.72;4995146;28;20386;-68
2023/05/05 00:02:40;;;;;;;63.07;59.67;;;;;;;25.27;41.24;101358.47;4994889;28;20478;-67
2023/05/05 00:05:06;;;;;;;60.17;57.08;;;;;;;25.23;40.94;101363.84;4994992;28;20034;-70
2023/05/05 00:07:31;;;;;;;63.50;60.30;;;;;;;25.21;41.32;101357.84;4995096;28;20030;-68
2023/05/05 00:09:56;;;;;;;62.85;59.65;;;;;;;25.20;41.28;101360.91;4995544;28;20030;-67
2023/05/05 00:12:22;;;;;;;63.72;60.33;;;;;;;25.19;41.52;101367.59;4995423;28;20081;-68
2023/05/05 00:14:47;;;;;;;61.70;58.50;;;;;;;25.17;41.33;101356.06;4995016;28;20117;-66
2023/05/05 00:17:13;;;;;;;63.58;59.88;;;;;;;25.15;41.51;101358.28;4994507;28;20022;-67
2023/05/05 00:19:39;;;;;;;65.82;61.97;;;;;;;25.13;41.58;101350.34;4994621;28;20048;-70
2023/05/05 00:22:05;;;;;;;63.38;60.05;;;;;;;25.11;41.42;101355.38;4994859;28;20034;-68
2023/05/05 00:24:30;;;;;;;62.97;59.78;;;;;;;25.09;41.58;101362.38;4995465;28;20479;-67
2023/05/05 00:26:56;;;;;;;63.17;59.88;;;;;;;25.08;41.27;101358.00;4994706;28;20128;-68
2023/05/05 00:29:21;;;;;;;65.72;62.38;;;;;;;25.05;41.43;101365.78;4994357;28;20037;-67
2023/05/05 00:31:50;;;;;;;61.80;58.50;;;;;;;25.03;41.79;101365.31;4977707;28;20121;-69
2023/05/05 00:34:16;;;;;;;65.38;61.83;;;;;;;25.02;41.50;101363.69;4994501;28;20494;-67
2023/05/05 00:36:41;;;;;;;65.18;61.67;;;;;;;25.00;41.42;101365.97;4994259;28;20038;-68
2023/05/05 00:39:07;;;;;;;63.80;60.53;;;;;;;24.99;41.34;101361.56;4994237;28;20035;-68
2023/05/05 00:41:32;;;;;;;62.28;59.05;;;;;;;24.97;41.75;101363.03;4994039;28;20030;-67
2023/05/05 00:43:58;;;;;;;63.10;59.85;;;;;;;24.96;41.64;101364.97;4976979;28;20121;-68
2023/05/05 00:46:25;;;;;;;63.38;60.17;;;;;;;24.94;41.14;101366.44;4994156;28;20118;-67
2023/05/05 00:48:51;;;;;;;63.30;60.00;;;;;;;24.93;41.55;101364.81;4976972;28;20046;-68
2023/05/05 00:51:17;;;;;;;62.22;58.95;;;;;;;24.90;41.53;101366.28;4994492;28;20038;-68
2023/05/05 00:53:44;;;;;;;61.53;58.22;;;;;;;24.89;41.55;101366.59;4994822;28;20036;-67
2023/05/05 00:56:13;;;;;;;65.05;61.65;;;;;;;24.87;41.37;101361.38;4995004;28;20090;-67
2023/05/05 00:58:42;;;;;;;62.15;58.85;;;;;;;24.84;41.55;101362.84;4994247;28;20034;-67
2023/05/05 01:01:10;;;;;;;60.97;57.85;;;;;;;24.82;41.50;101359.63;4994085;28;20165;-67
2023/05/05 01:03:40;;;;;;;62.20;59.05;;;;;;;24.81;41.53;101359.94;4977038;28;20106;-67
2023/05/05 01:06:05;;;;;;;63.80;60.42;;;;;;;24.78;41.58;101361.41;4994565;28;20038;-66
2023/05/05 01:08:42;;;;;;;62.13;58.83;;;;;;;24.76;41.56;101365.63;4993989;28;20485;-68
2023/05/05 01:11:25;;;;;;;62.42;59.13;;;;;;;24.73;41.50;101358.00;4994663;28;20031;-67
2023/05/05 01:14:15;;;;;;;59.95;56.78;;;;;;;24.72;41.63;101362.72;4977391;28;20352;-67
2023/05/05 01:16:51;;;;;;;62.53;59.08;;;;;;;24.69;41.47;101366.09;4993562;28;20501;-68
2023/05/05 01:19:34;;;;;;;63.35;60.03;;;;;;;24.66;41.84;101363.19;4994179;28;20026;-68
2023/05/05 01:22:02;;;;;;;58.90;55.70;;;;;;;24.64;41.74;101354.38;4976845;28;20041;-67
2023/05/05 01:24:59;;;;;;;61.38;58.08;;;;;;;24.63;41.58;101361.06;4993753;28;20130;-69
2023/05/05 01:27:49;;;;;;;59.85;56.65;;;;;;;24.58;41.95;101356.50;4993871;28;20390;-67
2023/05/05 01:30:42;;;;;;;58.60;55.58;;;;;;;24.54;42.01;101361.03;4994172;28;20108;-68
2023/05/05 01:33:12;;;;;;;61.80;58.47;;;;;;;24.51;41.46;101356.97;4993902;28;20491;-67
2023/05/05 01:35:52;;;;;;;59.03;55.83;;;;;;;24.50;41.90;101363.63;4993893;28;20347;-67
2023/05/05 01:38:30;;;;;;;58.42;55.30;;;;;;;24.49;41.78;101367.53;4994116;28;20030;-66
2023/05/05 01:41:09;;;;;;;60.53;57.35;;;;;;;24.48;41.56;101368.66;4994257;28;20114;-68
2023/05/05 01:43:37;;;;;;;57.72;54.78;;;;;;;24.46;41.93;101370.94;4993796;28;20148;-68
2023/05/05 01:46:05;;;;;;;62.35;58.95;;;;;;;24.44;41.93;101364.88;4993724;28;20037;-69
2023/05/05 01:48:32;;;;;;;60.20;57.10;;;;;;;24.43;41.94;101371.56;4993643;28;20041;-69
2023/05/05 01:51:01;;;;;;;60.45;57.38;;;;;;;24.43;41.79;101374.31;4993703;28;20042;-67
2023/05/05 01:53:26;;;;;;;59.88;56.88;;;;;;;24.41;41.51;101371.06;4993656;28;20042;-68
2023/05/05 01:55:54;;;;;;;58.35;55.35;;;;;;;24.39;41.94;101381.59;4993502;28;20454;-66
2023/05/05 01:58:21;;;;;;;57.25;54.35;;;;;;;24.37;41.93;101376.41;4975905;28;20062;-67
2023/05/05 02:00:47;;;;;;;56.92;54.05;;;;;;;24.35;41.64;101375.91;4993661;28;20093;-67
2023/05/05 02:03:14;;;;;;;57.20;54.40;;;;;;;24.33;41.96;101367.13;4976269;28;20435;-66
2023/05/05 02:05:41;;;;;;;58.10;55.20;;;;;;;24.32;41.57;101371.03;4993393;28;20374;-68
2023/05/05 02:08:08;;;;;;;58.38;55.47;;;;;;;24.31;41.37;101376.88;4993627;28;20386;-68
2023/05/05 02:10:35;;;;;;;57.60;54.60;;;;;;;24.28;41.65;101378.31;4993570;28;20034;-70
2023/05/05 02:13:04;;;;;;;55.65;52.95;;;;;;;24.27;41.31;101375.91;4993500;28;20069;-69
2023/05/05 02:15:31;;;;;;;58.15;55.25;;;;;;;24.24;41.72;101374.59;4993448;28;20035;-68
2023/05/05 02:17:58;;;;;;;56.83;53.97;;;;;;;24.23;41.70;101380.44;4994319;28;20113;-67
2023/05/05 02:20:28;;;;;;;57.55;54.58;;;;;;;24.19;41.88;101383.84;4975899;28;20026;-68
2023/05/05 02:22:54;;;;;;;56.85;53.95;;;;;;;24.18;41.54;101386.91;4979397;28;20035;-68
2023/05/05 02:25:20;;;;;;;55.50;52.70;;;;;;;24.15;41.63;101388.34;4997147;28;20035;-69
2023/05/05 02:27:47;;;;;;;59.22;55.78;;;;;;;24.13;41.47;101390.63;4997021;28;20470;-69
2023/05/05 02:30:17;;;;;;;55.40;52.60;;;;;;;24.09;41.87;101389.66;4997384;28;20038;-68
2023/05/05 02:32:54;;;;;;;56.80;53.90;;;;;;;24.08;41.90;101389.94;4996907;28;20478;-68
2023/05/05 02:35:23;;;;;;;55.17;51.93;;;;;;;24.06;41.84;101389.44;4997229;28;20030;-67
2023/05/05 02:38:01;;;;;;;56.17;53.17;;;;;;;24.03;41.60;101393.66;4996912;28;20528;-67
2023/05/05 02:40:29;;;;;;;57.75;54.63;;;;;;;24.01;41.37;101397.88;4997038;28;20033;-67
2023/05/05 02:42:57;;;;;;;56.30;53.20;;;;;;;23.98;41.87;101397.38;4996750;28;20109;-68
2023/05/05 02:45:25;;;;;;;56.83;54.03;;;;;;;23.96;41.79;101394.13;4996867;28;20429;-71
2023/05/05 02:47:51;;;;;;;55.75;52.75;;;;;;;23.95;41.36;101399.97;4996325;28;20034;-67
2023/05/05 02:50:16;;;;;;;59.13;56.08;;;;;;;23.92;41.58;101397.84;4996614;28;20485;-68
2023/05/05 02:52:43;;;;;;;56.53;53.53;;;;;;;23.90;41.51;101402.84;4996785;28;20132;-66
2023/05/05 02:55:08;;;;;;;56.92;54.00;;;;;;;23.89;41.70;101392.94;4997228;28;20045;-67
2023/05/05 02:57:43;;;;;;;57.35;54.10;;;;;;;23.87;41.72;101392.47;4978904;28;20383;-67
2023/05/05 03:00:24;;;;;;;54.70;51.92;;;;;;;23.84;41.56;101390.31;4996800;28;20027;-67
2023/05/05 03:03:15;;;;;;;54.90;52.17;;;;;;;23.80;41.78;101392.09;4996383;28;20081;-67
2023/05/05 03:05:50;;;;;;;55.75;52.80;;;;;;;23.77;41.70;101398.25;4996766;28;20435;-68
2023/05/05 03:08:19;;;;;;;53.42;50.40;;;;;;;23.74;41.48;101394.19;4996866;28;20121;-68
2023/05/05 03:11:03;;;;;;;56.78;53.35;;;;;;;23.70;41.83;101407.75;4996156;28;20370;-67
2023/05/05 03:13:33;;;;;;;54.25;51.42;;;;;;;23.69;41.36;101397.84;4995806;28;20088;-66
2023/05/05 03:16:03;;;;;;;55.13;52.33;;;;;;;23.67;41.50;101402.06;4978641;28;20474;-68
2023/05/05 03:18:30;;;;;;;52.05;49.35;;;;;;;23.65;41.79;101396.84;4996264;28;20038;-67
2023/05/05 03:20:56;;;;;;;54.63;51.83;;;;;;;23.63;41.68;101398.28;4978852;28;20046;-69
2023/05/05 03:23:21;;;;;;;56.08;53.25;;;;;;;23.61;41.85;101401.38;4996125;28;20050;-69
2023/05/05 03:25:48;;;;;;;54.40;51.40;;;;;;;23.59;41.37;101398.13;4996441;28;20057;-69
2023/05/05 03:28:15;;;;;;;56.13;53.42;;;;;;;23.57;41.34;101400.38;4996146;28;20057;-68
2023/05/05 03:30:41;;;;;;;53.72;50.97;;;;;;;23.54;41.50;101399.06;4995828;28;20034;-68
2023/05/05 03:33:07;;;;;;;54.08;51.33;;;;;;;23.53;41.83;101407.63;4995324;28;20039;-68
2023/05/05 03:35:33;;;;;;;57.92;54.90;;;;;;;23.51;41.80;101413.47;4962224;28;20057;-67
2023/05/05 03:37:58;;;;;;;53.08;50.28;;;;;;;23.48;41.91;101425.09;4978394;28;20460;-70
2023/05/05 03:40:23;;;;;;;54.72;51.95;;;;;;;23.45;41.79;101416.66;4995630;28;20053;-68
2023/05/05 03:42:49;;;;;;;56.35;53.50;;;;;;;23.43;41.76;101414.22;4978213;28;20026;-69
2023/05/05 03:45:14;;;;;;;55.13;52.20;;;;;;;23.42;41.44;101417.28;4995962;28;20030;-70
2023/05/05 03:47:40;;;;;;;56.00;53.10;;;;;;;23.40;41.88;101419.53;4995475;28;20051;-69
2023/05/05 03:50:06;;;;;;;54.30;51.05;;;;;;;23.38;41.85;101416.28;4978100;28;20041;-69
2023/05/05 03:52:31;;;;;;;53.88;51.05;;;;;;;23.36;41.63;101421.28;4995607;28;20034;-67
2023/05/05 03:54:58;;;;;;;54.28;51.13;;;;;;;23.33;41.66;101434.59;4995377;28;20057;-69
2023/05/05 03:57:24;;;;;;;55.88;52.88;;;;;;;23.29;41.78;101425.31;4978272;28;20084;-67
2023/05/05 03:59:50;;;;;;;52.03;49.25;;;;;;;23.28;41.37;101422.84;4996010;28;20030;-67
2023/05/05 04:02:15;;;;;;;54.17;51.28;;;;;;;23.24;41.36;101417.16;4995502;28;20035;-67
2023/05/05 04:04:41;;;;;;;54.92;51.95;;;;;;;23.22;41.80;101413.91;4995216;28;20370;-68
2023/05/05 04:07:06;;;;;;;55.60;52.67;;;;;;;23.20;41.76;101413.38;4978147;28;20073;-67
2023/05/05 04:09:31;;;;;;;54.67;51.78;;;;;;;23.17;41.37;101416.78;4995418;28;20069;-68
2023/05/05 04:11:57;;;;;;;52.20;49.40;;;;;;;23.16;41.85;101425.34;4994675;28;20433;-68
2023/05/05 04:14:22;;;;;;;54.03;51.13;;;;;;;23.13;41.42;101425.97;4994747;28;20046;-67
2023/05/05 04:16:47;;;;;;;53.03;50.22;;;;;;;23.10;41.42;101435.66;4994955;28;20035;-68
2023/05/05 04:19:13;;;;;;;54.28;51.15;;;;;;;23.07;41.70;101433.53;4994918;28;20061;-66
2023/05/05 04:21:38;;;;;;;54.22;51.42;;;;;;;23.06;41.50;101437.44;4995268;28;20486;-67
2023/05/05 04:24:04;;;;;;;53.03;50.17;;;;;;;23.03;41.47;101440.78;4995087;28;20398;-67
2023/05/05 04:26:29;;;;;;;53.72;50.45;;;;;;;23.01;41.41;101443.06;4995080;28;20069;-66
2023/05/05 04:28:55;;;;;;;52.78;49.88;;;;;;;22.99;41.49;101445.31;4994683;28;20093;-67
2023/05/05 04:31:20;;;;;;;51.20;48.50;;;;;;;22.96;41.93;101443.97;4994615;28;20034;-68
2023/05/05 04:33:46;;;;;;;52.05;49.22;;;;;;;22.94;41.52;101437.94;4994971;28;20042;-68
2023/05/05 04:36:11;;;;;;;52.53;49.67;;;;;;;22.93;41.62;101435.47;4995085;28;20034;-67
2023/05/05 04:38:36;;;;;;;51.38;48.65;;;;;;;22.89;41.82;101441.59;4977639;28;20490;-66
2023/05/05 04:41:05;;;;;;;51.35;48.58;;;;;;;22.87;41.36;101427.31;4994900;28;20042;-67
2023/05/05 04:43:30;;;;;;;51.17;48.47;;;;;;;22.85;41.46;101446.09;4976816;28;20118;-67
2023/05/05 04:45:56;;;;;;;52.17;49.38;;;;;;;22.83;41.69;101431.00;4994337;28;20514;-67
2023/05/05 04:48:22;;;;;;;50.92;48.33;;;;;;;22.79;41.53;101430.81;4994454;28;20034;-68
2023/05/05 04:50:47;;;;;;;51.88;49.13;;;;;;;22.78;41.52;101428.34;4994263;28;20114;-66
2023/05/05 04:53:12;;;;;;;51.25;48.38;;;;;;;22.76;41.90;101428.69;4977087;28;20109;-68
2023/05/05 04:55:38;;;;;;;51.95;49.15;;;;;;;22.74;41.41;101430.94;4994773;28;20039;-70
2023/05/05 04:58:04;;;;;;;52.70;49.88;;;;;;;22.72;41.92;101426.84;4994315;28;20179;-69
2023/05/05 05:00:29;;;;;;;50.15;47.50;;;;;;;22.71;41.78;101428.00;4976742;28;20046;-68
2023/05/05 05:02:55;;;;;;;51.17;48.47;;;;;;;22.69;41.56;101433.78;4994399;28;20057;-68
2023/05/05 05:05:21;;;;;;;53.05;50.15;;;;;;;22.66;41.79;101426.97;4993785;28;20427;-69
2023/05/05 05:07:46;;;;;;;54.25;51.35;;;;;;;22.66;42.03;101431.66;4994015;28;20069;-70
2023/05/05 05:10:12;;;;;;;50.63;47.90;;;;;;;22.65;41.52;101425.34;4977183;28;20120;-68
2023/05/05 05:12:37;;;;;;;50.10;47.30;;;;;;;22.64;41.54;101417.38;4994162;28;20046;-67
2023/05/05 05:15:03;;;;;;;51.40;48.70;;;;;;;22.63;41.60;101421.25;4976556;28;20509;-67
2023/05/05 05:17:29;;;;;;;51.78;49.05;;;;;;;22.61;41.88;101418.81;4994325;28;20348;-69
2023/05/05 05:19:55;;;;;;;52.55;49.65;;;;;;;22.60;41.62;101416.34;4994130;28;20041;-68
2023/05/05 05:22:21;;;;;;;48.85;46.35;;;;;;;22.59;41.97;101423.81;4993992;28;20045;-68
2023/05/05 05:24:46;;;;;;;51.00;48.13;;;;;;;22.59;41.65;101434.00;4993652;28;20129;-69
2023/05/05 05:27:12;;;;;;;50.55;47.70;;;;;;;22.57;41.76;101441.75;4994223;28;20033;-66
2023/05/05 05:29:37;;;;;;;49.15;46.47;;;;;;;22.56;41.69;101440.13;4993909;28;20081;-66
2023/05/05 05:32:03;;;;;;;49.10;46.50;;;;;;;22.55;41.58;101436.53;4994254;28;20042;-68
2023/05/05 05:34:28;;;;;;;48.10;45.40;;;;;;;22.55;41.96;101446.75;4994120;28;20470;-67
2023/05/05 05:36:54;;;;;;;53.88;50.90;;;;;;;22.55;42.18;101444.81;4994139;28;20470;-69
2023/05/05 05:39:20;;;;;;;48.65;46.00;;;;;;;22.55;41.81;101452.25;4976379;28;20062;-68
2023/05/05 05:41:46;;;;;;;49.05;46.50;;;;;;;22.54;42.21;101458.91;4993802;28;20541;-67
2023/05/05 05:44:11;;;;;;;49.22;46.53;;;;;;;22.54;41.77;101465.22;4994262;28;20034;-66
2023/05/05 05:46:36;;;;;;;49.90;47.10;;;;;;;22.54;41.89;101464.41;4976243;28;20062;-66
2023/05/05 05:49:02;;;;;;;51.53;48.65;;;;;;;22.53;41.83;101471.00;4993699;28;20026;-68
2023/05/05 05:51:27;;;;;;;49.58;46.78;;;;;;;22.54;42.02;101478.97;4976886;28;20030;-66
2023/05/05 05:53:53;;;;;;;50.08;46.95;;;;;;;22.54;41.83;101483.66;4993637;28;20037;-68
2023/05/05 05:56:18;;;;;;;48.92;46.33;;;;;;;22.53;42.33;101482.84;4995416;28;20046;-68
2023/05/05 05:58:44;;;;;;;49.60;46.90;;;;;;;22.54;41.95;101484.47;4998015;28;20466;-69
2023/05/05 06:01:09;;;;;;;49.25;46.15;;;;;;;22.55;42.19;101488.03;4997976;28;20072;-67
2023/05/05 06:03:35;;;;;;;49.17;46.47;;;;;;;22.54;42.26;101487.22;4997405;28;20038;-68
2023/05/05 06:06:00;;;;;;;48.92;46.35;;;;;;;22.54;42.37;101502.94;4996938;28;20034;-67
2023/05/05 06:08:26;;;;;;;50.63;47.88;;;;;;;22.54;41.95;101500.19;4997372;28;20106;-67
2023/05/05 06:10:51;;;;;;;52.08;48.92;;;;;;;22.53;42.32;101506.81;4997519;28;20041;-68
2023/05/05 06:13:17;;;;;;;49.10;46.35;;;;;;;22.53;42.26;101518.66;4997751;28;20066;-68
2023/05/05 06:15:42;;;;;;;47.80;45.20;;;;;;;22.51;42.36;101509.88;4997718;28;20030;-68
2023/05/05 06:18:07;;;;;;;48.80;45.83;;;;;;;22.51;42.23;101523.66;4980223;28;20034;-68
2023/05/05 06:20:33;;;;;;;48.65;45.85;;;;;;;22.51;41.95;101526.41;4979877;28;20042;-66
2023/05/05 06:22:58;;;;;;;48.83;46.05;;;;;;;22.50;42.16;101516.47;4996481;28;20109;-66
2023/05/05 06:25:24;;;;;;;49.80;46.83;;;;;;;22.47;42.13;101520.66;4997468;28;20059;-66
2023/05/05 06:27:49;;;;;;;49.58;46.85;;;;;;;22.47;42.69;101520.66;4996802;28;20048;-68
2023/05/05 06:30:14;;;;;;;49.60;46.90;;;;;;;22.47;42.68;101514.34;4979562;28;20486;-71
2023/05/05 06:32:40;;;;;;;48.45;45.78;;;;;;;22.46;42.79;101519.03;4997427;28;20088;-67
2023/05/05 06:35:06;;;;;;;50.97;48.17;;;;;;;22.46;42.70;101518.22;4979787;28;20124;-66
2023/05/05 06:37:31;;;;;;;50.33;47.63;;;;;;;22.47;42.24;101530.88;4997069;28;20038;-67
2023/05/05 06:39:57;;;;;;;52.78;49.88;;;;;;;22.46;42.81;101519.03;4996864;28;20090;-66
2023/05/05 06:42:22;;;;;;;49.05;46.25;;;;;;;22.49;42.64;101525.06;4979188;28;20033;-66
2023/05/05 06:44:47;;;;;;;49.63;46.83;;;;;;;22.49;42.92;101527.81;4997053;28;20030;-66
2023/05/05 06:47:13;;;;;;;51.42;48.50;;;;;;;22.49;42.47;101531.38;4996555;28;20494;-68
2023/05/05 06:49:38;;;;;;;48.47;45.92;;;;;;;22.52;42.80;101524.44;4996283;28;20038;-69
2023/05/05 06:52:04;;;;;;;50.85;47.90;;;;;;;22.54;42.50;101527.72;4996987;28;20452;-67
2023/05/05 06:54:29;;;;;;;50.55;47.67;;;;;;;22.56;42.64;101528.25;4996514;28;20038;-69
2023/05/05 06:56:54;;;;;;;50.95;48.10;;;;;;;22.57;42.84;101529.84;4978646;28;20030;-68
2023/05/05 06:59:20;;;;;;;52.50;49.63;;;;;;;22.58;42.39;101528.72;4996404;28;20102;-68
2023/05/05 07:01:45;;;;;;;52.17;48.97;;;;;;;22.59;42.98;101533.13;4978822;28;20046;-68
2023/05/05 07:04:11;;;;;;;50.93;47.93;;;;;;;22.61;42.43;101530.91;4996215;28;20038;-68
2023/05/05 07:06:36;;;;;;;49.90;46.95;;;;;;;22.63;42.47;101537.72;4996132;28;20034;-68
2023/05/05 07:09:03;;;;;;;49.70;46.90;;;;;;;22.65;42.78;101540.16;4996146;28;20037;-70
2023/05/05 07:11:28;;;;;;;51.70;48.65;;;;;;;22.67;43.01;101535.97;4996174;28;20030;-67
2023/05/05 07:13:54;;;;;;;49.28;46.45;;;;;;;22.69;42.62;101535.69;4996204;28;20062;-67
2023/05/05 07:16:19;;;;;;;50.80;48.00;;;;;;;22.70;43.02;101534.56;4995820;28;20062;-68
2023/05/05 07:18:45;;;;;;;49.78;46.95;;;;;;;22.71;42.73;101530.69;4996095;28;20378;-68
2023/05/05 07:21:10;;;;;;;51.30;48.40;;;;;;;22.72;42.61;101537.81;4996002;28;20188;-69
2023/05/05 07:23:36;;;;;;;50.28;47.38;;;;;;;22.74;42.54;101529.25;4995556;28;20034;-69
2023/05/05 07:26:02;;;;;;;51.65;48.67;;;;;;;22.75;42.71;101534.44;4995861;28;20030;-67
2023/05/05 07:28:28;;;;;;;48.00;45.33;;;;;;;22.77;43.29;101525.91;4978726;28;20125;-69
2023/05/05 07:30:53;;;;;;;49.50;46.80;;;;;;;22.78;42.76;101522.00;4995856;28;20486;-67
2023/05/05 07:33:18;;;;;;;50.38;47.58;;;;;;;22.78;42.91;101525.59;4996025;28;20116;-69
2023/05/05 07:35:44;;;;;;;49.20;46.60;;;;;;;22.82;42.83;101525.78;4995447;28;20169;-67
2023/05/05 07:38:10;;;;;;;51.05;48.10;;;;;;;22.83;43.15;101521.91;4995705;28;20097;-67
2023/05/05 07:40:35;;;;;;;51.75;48.75;;;;;;;22.86;43.26;101515.81;4978375;28;20035;-77
2023/05/05 07:43:01;;;;;;;52.05;48.92;;;;;;;22.88;43.36;101508.03;4996087;28;20035;-67
2023/05/05 07:45:27;;;;;;;50.65;47.55;;;;;;;22.90;42.96;101508.53;4978153;28;20038;-69
2023/05/05 07:47:53;;;;;;;52.33;49.38;;;;;;;22.94;43.14;101517.03;4996048;28;20037;-70
2023/05/05 07:50:19;;;;;;;52.70;49.50;;;;;;;22.96;43.51;101523.84;4977931;28;20109;-73
2023/05/05 07:52:44;;;;;;;51.45;48.60;;;;;;;22.99;43.09;101523.25;4978581;28;20463;-73
2023/05/05 07:55:10;;;;;;;52.33;49.28;;;;;;;23.01;43.03;101528.47;4995583;28;20034;-70
2023/05/05 07:57:35;;;;;;;50.72;47.92;;;;;;;23.04;43.09;101525.91;4995536;28;20477;-71
2023/05/05 08:00:02;;;;;;;53.42;50.42;;;;;;;23.07;43.16;101524.47;4995232;28;20450;-71
2023/05/05 08:02:27;;;;;;;51.83;48.92;;;;;;;23.10;43.73;101530.19;4995204;28;20100;-69
2023/05/05 08:04:52;;;;;;;51.58;48.78;;;;;;;23.13;43.69;101528.75;4977580;28;20467;-70
2023/05/05 08:07:18;;;;;;;54.33;51.25;;;;;;;23.17;43.61;101532.53;4994636;28;20038;-70
2023/05/05 08:09:43;;;;;;;52.28;49.45;;;;;;;23.20;43.35;101528.34;4994824;28;20061;-69
2023/05/05 08:12:11;;;;;;;54.70;51.40;;;;;;;23.22;44.00;101537.13;4977918;28;20089;-71
2023/05/05 08:14:37;;;;;;;52.80;49.22;;;;;;;23.26;43.78;101538.94;4995585;28;20035;-71
2023/05/05 08:17:02;;;;;;;52.20;49.35;;;;;;;23.29;43.53;101532.00;4994772;28;20073;-70
2023/05/05 08:19:28;;;;;;;52.97;50.00;;;;;;;23.33;43.68;101541.25;4994120;28;20041;-71
2023/05/05 08:21:53;;;;;;;53.00;50.10;;;;;;;23.37;44.16;101542.28;4977777;28;20387;-69
2023/05/05 08:24:19;;;;;;;53.20;50.40;;;;;;;23.41;44.06;101540.56;4994256;28;20388;-71
2023/05/05 08:26:44;;;;;;;52.17;49.35;;;;;;;23.44;43.64;101545.44;4976839;28;20035;-71
2023/05/05 08:29:10;;;;;;;54.00;50.83;;;;;;;23.47;44.25;101550.31;4994410;28;20037;-68
2023/05/05 08:31:35;;;;;;;53.00;50.00;;;;;;;23.50;43.73;101544.19;4977130;28;20397;-70
2023/05/05 08:34:03;;;;;;;54.08;51.08;;;;;;;23.54;43.91;101544.41;4994782;28;20037;-70
2023/05/05 08:36:28;;;;;;;53.17;50.28;;;;;;;23.57;44.28;101548.47;4994357;28;20069;-69
2023/05/05 08:38:54;;;;;;;53.75;50.75;;;;;;;23.60;44.34;101539.56;4976898;28;20062;-71
2023/05/05 08:41:19;;;;;;;55.95;52.85;;;;;;;23.63;44.28;101541.69;4994238;28;20038;-70
2023/05/05 08:43:46;;;;;;;52.90;50.08;;;;;;;23.65;44.33;101545.78;4993908;28;20030;-68
2023/05/05 08:46:12;;;;;;;54.53;51.33;;;;;;;23.69;43.97;101549.56;4976846;28;20053;-68
2023/05/05 08:48:40;;;;;;;54.60;51.47;;;;;;;23.71;44.54;101541.78;4994016;28;20471;-71
2023/05/05 08:51:08;;;;;;;52.60;49.55;;;;;;;23.74;44.16;101543.94;4977098;28;20053;-70
2023/05/05 08:53:50;;;;;;;55.40;52.30;;;;;;;23.78;44.40;101548.84;4994277;28;20034;-69
2023/05/05 08:56:18;;;;;;;56.40;53.13;;;;;;;23.79;44.41;101545.78;4994327;28;20065;-71
2023/05/05 08:58:45;;;;;;;53.55;50.75;;;;;;;23.83;44.33;101543.19;4993649;28;20027;-71
2023/05/05 09:01:12;;;;;;;54.40;51.63;;;;;;;23.86;44.43;101537.03;4976071;28;20039;-71
2023/05/05 09:03:38;;;;;;;55.65;52.55;;;;;;;23.88;44.26;101540.31;4976830;28;20375;-72
2023/05/05 09:06:05;;;;;;;54.80;51.72;;;;;;;23.90;44.20;101538.88;4976235;28;20030;-70
2023/05/05 09:08:31;;;;;;;55.78;52.72;;;;;;;23.94;44.78;101541.81;4994317;28;20438;-73
2023/05/05 09:10:56;;;;;;;54.80;51.83;;;;;;;23.96;44.71;101536.78;4994323;28;20041;-71
2023/05/05 09:13:22;;;;;;;57.10;53.97;;;;;;;23.98;44.37;101549.13;4993710;28;20390;-73
2023/05/05 09:15:48;;;;;;;55.53;52.53;;;;;;;24.00;44.55;101540.56;4993859;28;20109;-70
2023/05/05 09:18:13;;;;;;;59.25;55.88;;;;;;;24.02;44.27;101554.88;4976460;28;20034;-73
2023/05/05 09:20:40;;;;;;;56.58;53.53;;;;;;;24.04;44.77;101540.72;4993965;28;20467;-70
2023/05/05 09:23:16;;;;;;;55.58;52.38;;;;;;;24.05;45.07;101545.94;4994069;28;20026;-72
2023/05/05 09:25:44;;;;;;;55.40;52.45;;;;;;;24.07;44.92;101545.66;4993641;28;20050;-72
2023/05/05 09:28:15;;;;;;;58.42;55.42;;;;;;;24.08;44.83;101542.56;4976333;28;20034;-72
2023/05/05 09:30:42;;;;;;;55.55;52.38;;;;;;;24.09;44.76;101535.09;4994323;28;20034;-75
2023/05/05 09:33:08;;;;;;;54.85;51.95;;;;;;;24.11;44.75;101541.91;4997861;28;20034;-72
2023/05/05 09:35:54;;;;;;;56.85;53.22;;;;;;;24.13;44.84;101544.38;4981068;28;20038;-82
2023/05/05 09:38:22;;;;;;;57.20;54.15;;;;;;;24.15;44.96;101544.88;4997032;28;20049;-73
2023/05/05 09:40:52;;;;;;;59.60;56.00;;;;;;;24.16;44.83;101538.22;4980645;28;20038;-76
2023/05/05 09:43:19;;;;;;;61.03;57.30;;;;;;;24.16;44.75;101539.03;4997819;28;20038;-76
2023/05/05 09:45:45;;;;;;;60.35;56.40;;;;;;;24.15;45.02;101531.06;4997503;28;20109;-72
2023/05/05 09:48:23;;;;;;;62.13;58.10;;;;;;;24.16;44.90;101532.69;4997523;28;20382;-74
2023/05/05 09:50:49;;;;;;;57.33;53.75;;;;;;;24.16;45.13;101539.03;4997945;28;20034;-71
2023/05/05 09:53:14;;;;;;;60.47;56.88;;;;;;;24.19;45.08;101548.63;4997505;28;20448;-71
2023/05/05 09:55:40;;;;;;;61.17;57.28;;;;;;;24.20;45.05;101550.25;4997412;28;20093;-71
2023/05/05 09:58:20;;;;;;;58.85;55.22;;;;;;;24.21;45.20;101557.41;4997301;28;20031;-74
2023/05/05 10:00:46;;;;;;;59.90;56.35;;;;;;;24.23;45.43;101557.09;4997369;28;20034;-71
2023/05/05 10:03:11;;;;;;;61.15;57.45;;;;;;;24.23;45.53;101560.66;4996869;28;20034;-70
2023/05/05 10:05:51;;;;;;;57.25;54.00;;;;;;;24.24;45.63;101550.44;4997735;28;20034;-71
2023/05/05 10:08:22;;;;;;;56.50;53.15;;;;;;;24.24;45.36;101551.28;4980439;28;20360;-70
2023/05/05 10:10:59;;;;;;;59.40;55.95;;;;;;;24.26;45.49;101549.00;4980298;28;20034;-70
2023/05/05 10:13:26;;;;;;;59.58;56.17;;;;;;;24.27;45.05;101558.91;4997614;28;20034;-70
2023/05/05 10:15:55;;;;;;;58.67;55.45;;;;;;;24.28;45.26;101566.06;4997351;28;20042;-70
2023/05/05 10:18:23;;;;;;;61.22;57.55;;;;;;;24.29;45.21;101564.13;4997457;28;20080;-70
2023/05/05 10:20:55;;;;;;;57.78;54.17;;;;;;;24.31;45.49;101556.34;4996941;28;20034;-70
2023/05/05 10:23:22;;;;;;;57.03;53.65;;;;;;;24.30;45.34;101554.72;4996740;28;20065;-69
2023/05/05 10:26:02;;;;;;;55.28;52.05;;;;;;;24.31;45.53;101572.91;4997370;28;20463;-72
2023/05/05 10:28:40;;;;;;;60.17;56.78;;;;;;;24.30;45.53;101583.13;4996688;28;20071;-69
2023/05/05 10:31:12;;;;;;;60.35;56.90;;;;;;;24.31;45.56;101594.97;4997341;28;20038;-68
2023/05/05 10:34:05;;;;;;;58.72;55.40;;;;;;;24.29;45.66;101591.72;4996577;28;20088;-70
2023/05/05 10:36:31;;;;;;;58.30;55.03;;;;;;;24.30;45.28;101587.84;4996349;28;20038;-68
2023/05/05 10:38:58;;;;;;;58.67;55.40;;;;;;;24.29;45.32;101597.25;4979406;28;20038;-68
2023/05/05 10:41:29;;;;;;;58.37;54.77;;;;;;;24.31;45.51;101600.50;4996260;28;20479;-68
2023/05/05 10:43:56;;;;;;;57.58;54.38;;;;;;;24.30;45.45;101596.13;4996640;28;20033;-69
2023/05/05 10:46:22;;;;;;;59.85;56.40;;;;;;;24.29;45.77;101595.31;4996961;28;20037;-69
2023/05/05 10:49:29;;;;;;;58.05;54.97;;;;;;;24.28;45.86;101593.66;4979479;28;20034;-70
2023/05/05 10:52:08;;;;;;;56.67;53.53;;;;;;;24.26;45.30;101603.41;4997019;28;20023;-69
2023/05/05 10:54:42;;;;;;;56.53;53.53;;;;;;;24.25;45.49;101610.88;4996329;28;20463;-70
2023/05/05 10:57:10;;;;;;;58.80;55.72;;;;;;;24.25;45.63;101610.88;4996694;28;20040;-70
2023/05/05 10:59:38;;;;;;;57.67;54.50;;;;;;;24.26;45.73;101619.97;4978800;28;20613;-70
2023/05/05 11:02:23;;;;;;;54.13;51.30;;;;;;;24.24;45.76;101613.94;4996529;28;20039;-69
2023/05/05 11:05:11;;;;;;;53.83;51.03;;;;;;;24.21;45.37;101620.91;4996834;28;20369;-71
2023/05/05 11:07:37;;;;;;;54.70;51.80;;;;;;;24.19;45.25;101621.22;4996098;28;20034;-70
2023/05/05 11:10:04;;;;;;;54.17;51.28;;;;;;;24.18;45.50;101605.78;4996059;28;20043;-70
2023/05/05 11:12:32;;;;;;;56.83;53.72;;;;;;;24.17;45.64;101609.69;4978682;28;20030;-71